Portada
METAR-TAF:

METAR-TAF

Aeroports :

Phillip Goldston

Belize City, Belize

latitud: 17-32N, longitud: 088-18W, altitud: 5 m

Observació

L'informe es va fer fa 49 minuts, a les 21:00 UTC
Vent 9 kt del Est
Temperatura 30°C
Humitat 79%
Pressió 1010 hPa
Visibilitat 10 km o més
Cel ennuvolat a una alçada de 2200 ft

METAR: MZBZ 262100Z 09009KT 9999 BKN022 30/26 A2984 Q1010 NOSIG RMK- DIST SHWR- NW

Hora: 15:49 (21:49 UTC)

Pronòstic

L'informe es va fer fa 6 hores i 49 minuts, a les 15:00 UTC
Pronòstic vàlid del 26 a les 18 UTC al 27 a les 18 UTC
Vent 10 kt del Est
Visibilitat 10 km o més
Núvols disperses a una alçada de 2400 ft
Probabilitat 30% :
Temporalment
l' 27 a les 09 UTC al 27 a les 21 UTC
Visibilitat: 5000 m
Cel ennuvolat a una alçada de 1500 ft
xàfecs de pluja

TAF: MZBZ 261500Z 2618/2718 09010KT 9999 SCT024 PROB30 TEMPO 2709/2721 5000 SHRA BKN015

Observacions i pronòstics meteorològics de més de 4000 aeroports (METAR i TAF).

Les estacions disponibles són els punts grocs i vermells al mapa.

Posi el ratolí al punt desitjat per veure el nom de l'estació.

Feu clic per veure les observacions i els pronòstics meteorològics.

Per canviar el mapa: feu clic els botons verds amb una creu de color negre per apropar; al botó verd amb un guió per allunyar la imatge; o en les fletxes verdes per a mapes adjacents.


METAR-TAF: